createdAt,value
2018-01-31T01:53:16.929Z,101491.22
2018-01-31T01:55:42.721Z,101488.88
2018-01-31T01:58:08.507Z,101479.70
2018-01-31T02:00:34.290Z,101469.20
2018-01-31T02:03:00.203Z,101459.84
2018-01-31T02:05:25.986Z,101456.33
2018-01-31T02:07:51.802Z,101455.09
2018-01-31T02:10:17.604Z,101448.93
2018-01-31T02:12:43.390Z,101443.70
2018-01-31T02:15:09.166Z,101440.09
2018-01-31T02:17:35.846Z,101437.41
2018-01-31T02:20:01.634Z,101438.16
2018-01-31T02:22:28.399Z,101437.55
2018-01-31T02:24:55.201Z,101435.02
2018-01-31T02:27:21.886Z,101421.77
2018-01-31T02:29:48.752Z,101415.11
2018-01-31T02:32:15.513Z,101401.63
2018-01-31T02:34:41.302Z,101395.14
2018-01-31T02:37:07.081Z,101389.27
2018-01-31T02:42:30.744Z,101383.27
2018-01-31T02:44:57.429Z,101379.81
2018-01-31T02:47:24.141Z,101372.54
2018-01-31T02:49:50.917Z,101369.62
2018-01-31T02:52:16.697Z,101360.66
2018-01-31T02:54:42.482Z,101360.07
2018-01-31T02:57:08.270Z,101351.13
2018-01-31T02:59:34.053Z,101347.99
2018-01-31T03:01:59.837Z,101346.52
2018-01-31T03:04:26.501Z,101341.38
2018-01-31T03:06:53.257Z,101340.81
2018-01-31T03:09:19.036Z,101327.86
2018-01-31T03:11:44.818Z,101323.48
2018-01-31T03:14:10.596Z,101319.55
2018-01-31T03:16:36.382Z,101318.33
2018-01-31T03:19:02.161Z,101319.05
2018-01-31T03:21:27.948Z,101308.92
2018-01-31T03:23:53.728Z,101313.23
2018-01-31T03:26:19.506Z,101321.95
2018-01-31T03:28:45.281Z,101321.17
2018-01-31T03:31:11.065Z,101316.91
2018-01-31T03:33:36.836Z,101317.06
2018-01-31T03:36:02.637Z,101314.95
2018-01-31T03:38:29.360Z,101305.44
2018-01-31T03:40:56.114Z,101300.92
2018-01-31T03:43:21.898Z,101288.66
2018-01-31T03:45:47.680Z,101283.41
2018-01-31T03:48:13.509Z,101276.99
2018-01-31T03:50:39.280Z,101266.07
2018-01-31T03:53:05.063Z,101269.23
2018-01-31T03:55:30.880Z,101254.73
2018-01-31T03:57:56.652Z,101255.94
2018-01-31T04:00:23.311Z,101251.76
2018-01-31T04:02:50.035Z,101248.87
2018-01-31T04:05:15.808Z,101243.78
2018-01-31T04:07:41.594Z,101245.25
2018-01-31T04:10:07.377Z,101231.42
2018-01-31T04:12:33.151Z,101230.70
2018-01-31T04:14:58.931Z,101227.73
2018-01-31T04:17:24.705Z,101227.94
2018-01-31T04:19:51.345Z,101231.20
2018-01-31T04:22:17.121Z,101229.77
2018-01-31T04:24:42.901Z,101235.66
2018-01-31T04:27:08.708Z,101224.39
2018-01-31T04:29:35.389Z,101233.45
2018-01-31T04:32:01.287Z,101224.06
2018-01-31T04:34:27.065Z,101218.53
2018-01-31T04:36:53.842Z,101211.19
2018-01-31T04:39:20.574Z,101199.42
2018-01-31T04:41:46.740Z,101199.58
2018-01-31T04:44:13.512Z,101187.09
2018-01-31T04:46:40.133Z,101177.66
2018-01-31T04:49:06.902Z,101178.86
2018-01-31T04:51:32.708Z,101175.08
2018-01-31T04:53:58.496Z,101166.78
2018-01-31T04:56:25.205Z,101154.63
2018-01-31T04:58:51.865Z,101151.84
2018-01-31T05:01:18.717Z,101143.91
2018-01-31T05:03:45.441Z,101136.28
2018-01-31T05:06:11.226Z,101133.98
2018-01-31T05:08:37.001Z,101124.07
2018-01-31T05:11:02.813Z,101115.37
2018-01-31T05:13:28.588Z,101110.84
2018-01-31T05:15:54.397Z,101098.42
2018-01-31T05:18:20.168Z,101093.56
2018-01-31T05:20:45.973Z,101086.06
2018-01-31T05:23:11.781Z,101075.32
2018-01-31T05:25:38.378Z,101077.22
2018-01-31T05:28:04.160Z,101069.81
2018-01-31T05:30:29.984Z,101050.72
2018-01-31T05:32:57.817Z,101042.47
2018-01-31T05:35:24.386Z,101042.73
2018-01-31T05:37:50.214Z,101026.58
2018-01-31T05:40:17.013Z,101011.70
2018-01-31T05:42:42.777Z,101004.69
2018-01-31T05:45:08.545Z,100992.00
2018-01-31T05:47:34.349Z,100985.91
2018-01-31T05:50:00.966Z,100972.61
2018-01-31T05:52:26.784Z,100966.27
2018-01-31T05:54:53.383Z,100958.00
2018-01-31T05:57:20.113Z,100953.92
2018-01-31T05:59:45.882Z,100961.75
2018-01-31T06:02:12.613Z,100962.67
2018-01-31T06:04:39.432Z,100959.60
2018-01-31T06:07:06.224Z,100962.58
2018-01-31T06:09:32.044Z,100949.21
2018-01-31T06:11:57.813Z,100935.41
2018-01-31T06:14:24.543Z,100918.73
2018-01-31T06:16:51.305Z,100923.73
2018-01-31T06:19:17.081Z,100923.22
2018-01-31T06:21:42.871Z,100916.42
2018-01-31T06:24:08.683Z,100925.20
2018-01-31T06:26:34.467Z,100912.11
2018-01-31T06:29:00.237Z,100912.20
2018-01-31T06:31:26.089Z,100902.13
2018-01-31T06:33:51.877Z,100894.70
2018-01-31T06:36:17.798Z,100895.38
2018-01-31T06:38:43.590Z,100892.52
2018-01-31T06:41:09.485Z,100880.75
2018-01-31T06:43:35.253Z,100886.34
2018-01-31T06:46:01.868Z,100881.42
2018-01-31T06:48:27.641Z,100876.78
2018-01-31T06:50:53.417Z,100869.88
2018-01-31T06:53:20.201Z,100865.58
2018-01-31T06:55:45.969Z,100860.00
2018-01-31T06:58:12.741Z,100863.09
2018-01-31T07:00:38.516Z,100853.52
2018-01-31T07:03:04.286Z,100854.45
2018-01-31T07:05:30.120Z,100843.51
2018-01-31T07:07:55.929Z,100846.27
2018-01-31T07:10:21.697Z,100837.97
2018-01-31T07:12:48.393Z,100827.58
2018-01-31T07:15:14.170Z,100832.09
2018-01-31T07:17:40.016Z,100826.81
2018-01-31T07:20:06.740Z,100820.22
2018-01-31T07:22:32.530Z,100815.45
2018-01-31T07:24:58.348Z,100803.99
2018-01-31T07:27:24.128Z,100799.29
2018-01-31T07:29:50.729Z,100796.33
2018-01-31T07:32:16.501Z,100779.76
2018-01-31T07:34:42.277Z,100777.80
2018-01-31T07:37:08.046Z,100776.84
2018-01-31T07:39:33.826Z,100762.28
2018-01-31T07:41:59.608Z,100756.17
2018-01-31T07:44:25.385Z,100740.98
2018-01-31T07:46:51.164Z,100730.08
2018-01-31T07:49:16.942Z,100726.05
2018-01-31T07:51:42.730Z,100712.50
2018-01-31T07:54:08.509Z,100706.31
2018-01-31T07:56:34.344Z,100707.52
2018-01-31T07:59:00.096Z,100712.08
2018-01-31T08:01:25.869Z,100701.94
2018-01-31T08:03:51.645Z,100694.50
2018-01-31T08:06:17.420Z,100688.56
2018-01-31T08:08:43.197Z,100689.04
2018-01-31T08:11:08.969Z,100677.03
2018-01-31T08:13:35.758Z,100681.77
2018-01-31T08:16:01.564Z,100680.16
2018-01-31T08:18:27.366Z,100671.73
2018-01-31T08:20:53.210Z,100661.28
2018-01-31T08:23:19.059Z,100657.48
2018-01-31T08:25:44.841Z,100652.30
2018-01-31T08:28:11.081Z,100644.55
2018-01-31T08:30:36.990Z,100644.73
2018-01-31T08:33:02.801Z,100639.91
2018-01-31T08:35:28.589Z,100637.52
2018-01-31T08:37:54.754Z,100628.84
2018-01-31T08:40:20.677Z,100623.41
2018-01-31T08:42:46.493Z,100612.70
2018-01-31T08:45:12.270Z,100603.70
2018-01-31T08:47:38.971Z,100597.02
2018-01-31T08:50:05.772Z,100588.34
2018-01-31T08:52:31.559Z,100577.22
2018-01-31T08:54:57.338Z,100577.22
2018-01-31T08:57:24.009Z,100578.12
2018-01-31T08:59:49.826Z,100571.63
2018-01-31T09:02:15.605Z,100571.44
2018-01-31T09:04:41.435Z,100563.16
2018-01-31T09:07:07.222Z,100559.02
2018-01-31T09:09:34.025Z,100559.66
2018-01-31T09:11:59.809Z,100554.88
2018-01-31T09:14:25.590Z,100549.36
2018-01-31T09:16:52.268Z,100541.22
2018-01-31T09:19:18.046Z,100540.48
2018-01-31T09:21:43.837Z,100529.30
2018-01-31T09:24:09.679Z,100527.28
2018-01-31T09:26:36.376Z,100512.67
2018-01-31T09:29:02.161Z,100508.30
2018-01-31T09:31:27.962Z,100500.05
2018-01-31T09:33:53.789Z,100493.47
2018-01-31T09:36:19.570Z,100480.81
2018-01-31T09:38:46.204Z,100482.97
2018-01-31T09:41:13.025Z,100476.94
2018-01-31T09:43:39.847Z,100480.44
2018-01-31T09:46:05.625Z,100461.00
2018-01-31T09:48:32.348Z,100468.34
2018-01-31T09:50:58.271Z,100473.91
2018-01-31T09:53:25.048Z,100452.91
2018-01-31T09:55:50.837Z,100439.49
2018-01-31T09:58:17.427Z,100454.23
2018-01-31T10:00:43.438Z,100454.98
2018-01-31T10:03:09.221Z,100446.61
2018-01-31T10:05:35.032Z,100443.83
2018-01-31T10:08:00.809Z,100435.30
2018-01-31T10:10:27.377Z,100429.95
2018-01-31T10:12:54.094Z,100422.48
2018-01-31T10:15:20.984Z,100406.89
2018-01-31T10:17:47.814Z,100416.20
2018-01-31T10:20:13.594Z,100399.57
2018-01-31T10:22:39.425Z,100398.25
2018-01-31T10:25:05.360Z,100399.81
2018-01-31T10:27:31.914Z,100391.69
2018-01-31T10:29:57.693Z,100392.16
2018-01-31T10:32:24.464Z,100388.39
2018-01-31T10:34:51.241Z,100385.08
2018-01-31T10:37:17.018Z,100372.45
2018-01-31T10:39:42.814Z,100364.11
2018-01-31T10:42:08.595Z,100364.05
2018-01-31T10:44:34.365Z,100351.39
2018-01-31T10:47:00.150Z,100344.55
2018-01-31T10:49:26.892Z,100335.38
2018-01-31T10:51:52.709Z,100333.23
2018-01-31T10:59:10.209Z,100313.27
2018-01-31T11:01:35.990Z,100305.25
2018-01-31T11:04:01.775Z,100292.94
2018-01-31T11:06:27.561Z,100295.16
2018-01-31T11:08:54.393Z,100296.42
2018-01-31T11:11:20.750Z,100284.52
2018-01-31T11:13:46.589Z,100283.32
2018-01-31T11:16:13.321Z,100275.11
2018-01-31T11:18:39.096Z,100265.17
2018-01-31T11:21:04.881Z,100266.28
2018-01-31T11:23:30.662Z,100263.17
2018-01-31T11:25:56.433Z,100240.68
2018-01-31T11:28:22.330Z,100248.85
2018-01-31T11:30:49.103Z,100239.12
2018-01-31T11:33:14.882Z,100232.11
2018-01-31T11:35:41.605Z,100232.73
2018-01-31T11:38:07.389Z,100230.70
2018-01-31T11:40:33.170Z,100220.67
2018-01-31T11:42:58.958Z,100204.61
2018-01-31T11:45:24.741Z,100215.96
2018-01-31T11:47:51.458Z,100205.21
2018-01-31T11:50:17.236Z,100193.05
2018-01-31T11:52:44.058Z,100182.13
2018-01-31T11:55:09.841Z,100176.58
2018-01-31T11:57:35.617Z,100169.44
2018-01-31T12:00:01.394Z,100159.20
2018-01-31T12:02:27.178Z,100148.44
2018-01-31T12:04:52.958Z,100151.08
2018-01-31T12:07:18.755Z,100143.56
2018-01-31T12:09:44.536Z,100126.52
2018-01-31T12:12:10.360Z,100126.07
2018-01-31T12:14:42.269Z,100119.05
2018-01-31T12:17:10.003Z,100106.05
2018-01-31T12:19:41.879Z,100103.18
2018-01-31T12:22:14.540Z,100094.14
2018-01-31T12:24:47.365Z,100086.94
2018-01-31T12:27:19.331Z,100094.05
2018-01-31T12:29:51.142Z,100090.59
2018-01-31T12:32:23.077Z,100073.25
2018-01-31T12:34:54.895Z,100058.16
2018-01-31T12:37:26.649Z,100054.30
2018-01-31T12:39:52.367Z,100049.49
2018-01-31T12:42:18.082Z,100047.10
2018-01-31T12:44:43.811Z,100037.66
2018-01-31T12:47:15.701Z,100031.46
2018-01-31T12:49:47.469Z,100032.59
2018-01-31T12:52:28.218Z,100019.25
2018-01-31T12:55:00.219Z,100019.82
2018-01-31T12:57:30.352Z,100009.52
2018-01-31T13:00:02.354Z,100009.59
2018-01-31T13:02:34.154Z,100001.19
2018-01-31T13:05:12.138Z,100002.81
2018-01-31T13:07:44.133Z,100005.86
2018-01-31T13:10:16.085Z,99998.12
2018-01-31T13:12:48.003Z,99989.53
2018-01-31T13:15:20.503Z,99978.15
2018-01-31T13:17:52.581Z,99979.55
2018-01-31T13:20:21.306Z,99975.58
2018-01-31T13:23:04.660Z,99965.58
2018-01-31T13:25:36.438Z,99962.58
2018-01-31T13:28:15.589Z,99967.25
2018-01-31T13:30:47.529Z,99963.41
2018-01-31T13:33:25.384Z,99955.58
2018-01-31T13:35:57.286Z,99960.85
2018-01-31T13:38:29.210Z,99949.59
2018-01-31T13:41:01.164Z,99936.73
2018-01-31T13:43:33.049Z,99932.09
2018-01-31T13:46:05.069Z,99920.21
2018-01-31T13:48:37.094Z,99921.93
2018-01-31T13:51:03.704Z,99919.49
2018-01-31T13:53:35.717Z,99917.73
2018-01-31T13:56:07.706Z,99915.61
2018-01-31T13:58:39.791Z,99909.78
2018-01-31T14:01:11.738Z,99899.59
2018-01-31T14:03:43.717Z,99891.28
2018-01-31T14:06:15.676Z,99889.91
2018-01-31T14:08:47.521Z,99882.70
2018-01-31T14:11:19.307Z,99879.20
2018-01-31T14:13:51.198Z,99884.27
2018-01-31T14:16:22.972Z,99870.34
2018-01-31T14:18:54.926Z,99867.56
2018-01-31T14:21:26.873Z,99863.45
2018-01-31T14:23:58.794Z,99856.93
2018-01-31T14:26:30.555Z,99867.29
2018-01-31T14:29:02.345Z,99862.28
2018-01-31T14:31:34.248Z,99848.54
2018-01-31T14:34:06.321Z,99847.78
2018-01-31T14:36:32.936Z,99843.31
2018-01-31T14:38:58.649Z,99835.69
2018-01-31T14:41:24.373Z,99829.11
2018-01-31T14:43:50.935Z,99829.02
2018-01-31T14:46:17.582Z,99832.02
2018-01-31T14:48:43.338Z,99827.42
2018-01-31T14:51:09.057Z,99822.36
2018-01-31T14:53:34.774Z,99819.69
2018-01-31T14:56:00.514Z,99818.61
2018-01-31T14:58:26.232Z,99819.16
2018-01-31T15:00:52.036Z,99816.39
2018-01-31T15:03:17.753Z,99811.55
2018-01-31T15:05:44.414Z,99810.67
2018-01-31T15:08:10.140Z,99802.27
2018-01-31T15:10:35.893Z,99798.86
2018-01-31T15:13:01.603Z,99787.91
2018-01-31T15:15:27.349Z,99776.59
2018-01-31T15:17:53.060Z,99775.95
2018-01-31T15:20:18.772Z,99770.80
2018-01-31T15:22:44.494Z,99758.09
2018-01-31T15:25:10.221Z,99755.41
2018-01-31T15:27:35.986Z,99760.14
2018-01-31T15:30:01.706Z,99749.01
2018-01-31T15:32:27.417Z,99739.48
2018-01-31T15:34:53.172Z,99738.70
2018-01-31T15:37:18.876Z,99732.03
2018-01-31T15:39:44.633Z,99728.77
2018-01-31T15:42:10.357Z,99725.66
2018-01-31T15:44:36.090Z,99722.25
2018-01-31T15:47:01.817Z,99711.58
2018-01-31T15:49:27.524Z,99709.38
2018-01-31T15:51:53.242Z,99701.61
2018-01-31T15:54:19.000Z,99700.24
2018-01-31T15:56:44.722Z,99697.44
2018-01-31T15:59:10.444Z,99690.43
2018-01-31T16:01:36.170Z,99681.58
2018-01-31T16:04:01.882Z,99679.92
2018-01-31T16:06:27.603Z,99673.03
2018-01-31T16:08:53.353Z,99674.28
2018-01-31T16:11:20.222Z,99674.84
2018-01-31T16:13:45.944Z,99673.05
2018-01-31T16:16:11.696Z,99672.17
2018-01-31T16:18:43.613Z,99660.73
2018-01-31T16:21:15.717Z,99658.19
2018-01-31T16:23:41.518Z,99653.62
2018-01-31T16:26:07.409Z,99651.45
2018-01-31T16:31:31.992Z,99634.78
2018-01-31T16:33:57.777Z,99629.50
2018-01-31T16:36:23.560Z,99622.80
2018-01-31T16:38:49.394Z,99607.17
2018-01-31T16:41:16.022Z,99606.47
2018-01-31T16:43:41.837Z,99605.95
2018-01-31T16:46:07.627Z,99604.84
2018-01-31T16:48:33.498Z,99601.58
2018-01-31T16:50:59.345Z,99596.58
2018-01-31T16:53:25.125Z,99594.61
2018-01-31T16:55:50.941Z,99594.20
2018-01-31T16:58:16.767Z,99597.84
2018-01-31T17:00:42.774Z,99583.61
2018-01-31T17:03:08.600Z,99578.77
2018-01-31T17:05:34.389Z,99576.09
2018-01-31T17:08:01.197Z,99566.31
2018-01-31T17:10:27.036Z,99552.33
2018-01-31T17:12:53.690Z,99563.13
2018-01-31T17:15:19.521Z,99559.63
2018-01-31T17:17:45.300Z,99563.50
2018-01-31T17:20:11.114Z,99563.37
2018-01-31T17:22:36.932Z,99548.28
2018-01-31T17:25:02.782Z,99548.24
2018-01-31T17:27:29.545Z,99549.56
2018-01-31T17:29:55.321Z,99540.97
2018-01-31T17:32:22.088Z,99539.75
2018-01-31T17:34:47.905Z,99536.39
2018-01-31T17:37:14.649Z,99529.38
2018-01-31T17:39:40.428Z,99523.36
2018-01-31T17:42:07.166Z,99515.32
2018-01-31T17:44:32.973Z,99509.34
2018-01-31T17:46:59.585Z,99505.95
2018-01-31T17:49:26.353Z,99501.95
2018-01-31T17:51:53.144Z,99501.91
2018-01-31T17:54:19.973Z,99494.41
2018-01-31T17:56:46.727Z,99488.36
2018-01-31T17:59:12.504Z,99491.23
2018-01-31T18:01:38.287Z,99484.02
2018-01-31T18:04:04.084Z,99483.56
2018-01-31T18:06:29.865Z,99478.17
2018-01-31T18:08:55.654Z,99475.86
2018-01-31T18:11:21.469Z,99476.83
2018-01-31T18:13:47.244Z,99469.53
2018-01-31T18:16:13.065Z,99469.94
2018-01-31T18:18:38.845Z,99467.72
2018-01-31T18:21:04.692Z,99457.90
2018-01-31T18:23:30.476Z,99454.84
2018-01-31T18:25:56.249Z,99450.11
2018-01-31T18:28:22.045Z,99450.40
2018-01-31T18:30:47.830Z,99444.04
2018-01-31T18:33:13.656Z,99444.41
2018-01-31T18:35:39.431Z,99433.36
2018-01-31T18:38:06.181Z,99426.09
2018-01-31T18:40:31.956Z,99419.81
2018-01-31T18:42:57.738Z,99409.72
2018-01-31T18:45:23.521Z,99412.47
2018-01-31T18:47:49.296Z,99413.18
2018-01-31T18:50:15.072Z,99398.38
2018-01-31T18:52:40.881Z,99403.88
2018-01-31T18:55:06.698Z,99395.05
2018-01-31T18:57:32.581Z,99401.19
2018-01-31T18:59:58.364Z,99383.52
2018-01-31T19:02:24.184Z,99380.53
2018-01-31T19:04:49.968Z,99368.27
2018-01-31T19:07:16.659Z,99369.59
2018-01-31T19:09:42.436Z,99374.55
2018-01-31T19:12:09.162Z,99373.09
2018-01-31T19:14:34.965Z,99374.72
2018-01-31T19:17:00.751Z,99364.73
2018-01-31T19:19:26.536Z,99369.98
2018-01-31T19:21:52.306Z,99364.78
2018-01-31T19:24:18.121Z,99367.92
2018-01-31T19:26:43.889Z,99360.25
2018-01-31T19:29:09.657Z,99355.43
2018-01-31T19:31:35.465Z,99362.23
2018-01-31T19:34:01.259Z,99354.28
2018-01-31T19:36:27.929Z,99355.43
2018-01-31T19:38:53.725Z,99351.64
2018-01-31T19:41:19.536Z,99356.98
2018-01-31T19:43:46.100Z,99353.15
2018-01-31T19:46:11.908Z,99346.49
2018-01-31T19:48:37.678Z,99343.44
2018-01-31T19:51:03.494Z,99343.44
2018-01-31T19:53:30.151Z,99331.45
2018-01-31T19:55:55.933Z,99334.50
2018-01-31T19:58:21.708Z,99339.23
2018-01-31T20:00:48.344Z,99326.28
2018-01-31T20:03:14.125Z,99329.20
2018-01-31T20:05:39.898Z,99321.11
2018-01-31T20:08:05.673Z,99330.34
2018-01-31T20:10:31.461Z,99331.28
2018-01-31T20:12:57.574Z,99317.81
2018-01-31T20:15:23.349Z,99322.32
2018-01-31T20:17:49.131Z,99320.53
2018-01-31T20:20:14.906Z,99312.97
2018-01-31T20:22:40.681Z,99326.58
2018-01-31T20:25:06.457Z,99318.75
2018-01-31T20:27:32.241Z,99310.16
2018-01-31T20:29:58.019Z,99310.98
2018-01-31T20:32:23.809Z,99304.61
2018-01-31T20:34:49.585Z,99314.20
2018-01-31T20:37:15.360Z,99306.84
2018-01-31T20:39:41.169Z,99305.98
2018-01-31T20:42:07.729Z,99305.19
2018-01-31T20:44:33.590Z,99299.22
2018-01-31T20:46:59.360Z,99299.52
2018-01-31T20:49:26.093Z,99298.26
2018-01-31T20:51:51.870Z,99293.81
2018-01-31T20:54:18.714Z,99293.94
2018-01-31T20:56:44.490Z,99290.42
2018-01-31T21:01:57.204Z,99298.58
2018-01-31T21:04:25.199Z,99286.41
2018-01-31T21:06:52.731Z,99287.42
2018-01-31T21:09:19.227Z,99287.73
2018-01-31T21:11:58.070Z,99295.32
2018-01-31T21:14:36.290Z,99284.89
2018-01-31T21:17:03.097Z,99283.64
2018-01-31T21:19:29.748Z,99279.13
2018-01-31T21:21:56.551Z,99272.99
2018-01-31T21:24:23.263Z,99272.38
2018-01-31T21:26:49.976Z,99270.22
2018-01-31T21:29:16.612Z,99264.83
2018-01-31T21:31:42.655Z,99264.22
2018-01-31T21:34:09.606Z,99268.13
2018-01-31T21:36:35.977Z,99259.00
2018-01-31T21:39:02.141Z,99250.91
2018-01-31T21:41:30.837Z,99254.91
2018-01-31T21:43:56.993Z,99252.05
2018-01-31T21:46:23.200Z,99253.33
2018-01-31T21:48:49.270Z,99246.45
2018-01-31T21:51:15.100Z,99249.00
2018-01-31T21:53:40.929Z,99249.80
2018-01-31T21:56:06.965Z,99279.86
2018-01-31T21:58:33.037Z,99291.11
2018-01-31T22:00:58.953Z,99287.23
2018-01-31T22:03:29.369Z,99278.87
2018-01-31T22:05:55.152Z,99279.56
2018-01-31T22:08:20.934Z,99271.55
2018-01-31T22:10:46.750Z,99271.03
2018-01-31T22:13:13.396Z,99271.05
2018-01-31T22:15:39.185Z,99263.61
2018-01-31T22:18:04.967Z,99259.54
2018-01-31T22:20:30.745Z,99259.30
2018-01-31T22:22:56.561Z,99256.86
2018-01-31T22:25:23.229Z,99261.74
2018-01-31T22:27:49.905Z,99262.30
2018-01-31T22:30:16.671Z,99255.42
2018-01-31T22:32:42.453Z,99256.39
2018-01-31T22:35:08.220Z,99261.33
2018-01-31T22:37:33.997Z,99270.88
2018-01-31T22:39:59.777Z,99274.26
2018-01-31T22:42:25.593Z,99270.69
2018-01-31T22:44:51.377Z,99274.80
2018-01-31T22:47:17.159Z,99267.91
2018-01-31T22:49:42.937Z,99275.25
2018-01-31T22:52:08.721Z,99277.14
2018-01-31T22:54:35.344Z,99279.34
2018-01-31T22:57:02.131Z,99276.70
2018-01-31T22:59:28.015Z,99276.54
2018-01-31T23:01:53.810Z,99271.45
2018-01-31T23:04:19.611Z,99282.45
2018-01-31T23:06:45.385Z,99289.78
2018-01-31T23:09:11.172Z,99297.57
2018-01-31T23:11:43.005Z,99294.43
2018-01-31T23:14:14.798Z,99292.89
2018-01-31T23:16:40.662Z,99292.28
2018-01-31T23:19:06.445Z,99295.07
2018-01-31T23:21:33.257Z,99293.19
2018-01-31T23:23:59.037Z,99296.72
2018-01-31T23:26:24.965Z,99286.35
2018-01-31T23:28:50.742Z,99285.39
2018-01-31T23:31:16.515Z,99283.96
2018-01-31T23:33:42.317Z,99292.37
2018-01-31T23:36:08.126Z,99296.94
2018-01-31T23:38:33.958Z,99301.34
2018-01-31T23:40:59.873Z,99306.28
2018-01-31T23:43:25.649Z,99300.70
2018-01-31T23:45:51.445Z,99299.06
2018-01-31T23:48:17.334Z,99293.67
2018-01-31T23:50:44.045Z,99298.67
2018-01-31T23:53:09.828Z,99299.22
2018-01-31T23:55:35.613Z,99288.14
2018-01-31T23:58:01.385Z,99295.72
